Littleton, CO (80123)

3:03 AM MDT on October 22, 2014 (GMT -0600)
Chatfield Heights | Change Station
CLOSE
Current Station
Personal Weather Station
Location: Littleton, CO
Elevation: 5554 ft
Nearby Weather Stations

Elev 5554 ft 39.56 °N, 105.07 °W | Updated 59 seconds ago

Mostly Cloudy
Mostly Cloudy
51.6 °F
Feels Like 51.6 °F
N
0.0
Wind Variable Wind from WSW
Gusts 0.0 mph

Today
High -- | Low -- °F
--% Chance of Precip.
Yesterday
High -- | Low -- °F
Precip. -- in
7:17 AM 6:11 PM
Waning Crescent, 2% visible
Pressure 29.87 in
Visibility 10.0 miles
Clouds Clear
Dew Point 41 °F
Humidity 67%
Rainfall 0.00 in
Snow Depth Not available.
UV 0 out of 12
Pollen 3.00 out of 12
PM2.5 Good
Flu Activity Sporadic
METAR KAPA 220853Z 34008KT 10SM CLR 11/05 A3002 RMK AO2 SLP114 60000 T01060050 53008

More Conditions Fewer Conditions

Pressure 29.87 in
Visibility 10.0 miles
Clouds Clear
Dew Point 41 °F
Humidity 67%
Rainfall 0.00 in
Snow Depth Not available.
UV 0 out of 12
Pollen 3.00 out of 12
PM2.5 Good
Flu Activity Sporadic
METAR KAPA 220853Z 34008KT 10SM CLR 11/05 A3002 RMK AO2 SLP114 60000 T01060050 53008

More Conditions Fewer Conditions

10-Day Weather Forecast

Almanac

Astronomy

Oct. 22, 2014 Rise Set
Actual Time 7:17 AM MDT 6:11 PM MDT
Civil Twilight 6:50 AM MDT 6:38 PM MDT
Nautical Twilight 6:18 AM MDT 7:09 PM MDT
Astronomical Twilight 5:47 AM MDT 7:40 PM MDT
Moon 6:01 AM MDT 5:39 PM MDT
Length of Visible Light 11h 48m
Length of Day
10h 53m
Tomorrow will be 2m 26s shorter.
Waning Crescent, 2% of the Moon is Illuminated
Today
Waning Crescent
Oct 23
New
Oct 30
First Quarter
Nov 6
Full
Nov 14
Last Quarter

Today's Extremes

State Highs State Lows

Community

WunderPhotos

Upload Photos

1,763,900 photos uploaded!

Nearby

Air Quality

  Air Quality AQ Index Pollutant
Yesterday Good
OZONE
Yesterday Good
PM10
Current Good
PM2.5
Wednesday Good
OZONE
Wednesday Good
PM2.5

Snow Depth

Station Depth Elevation
Echo Lake 0 in 10600 ft
Lake Eldora 0 in 9700 ft
Jackwhacker Gulch 0 in 10960 ft
Niwot 0 in 9910 ft
University Camp 0 in 10300 ft

Earthquake Activity

City Distance Mag. Time & Date
No recent earthquake activity has been reported nearby.
Minimum magnitude displayed is 2.5.

Coastal Water Temperatures

Place Temperature
No Stations Reporting

Nearby Weather Stations